createdAt,value
2018-07-03T00:00:52.339Z,0.00
2018-07-03T00:01:52.329Z,0.00
2018-07-03T00:02:52.316Z,0.00
2018-07-03T00:03:52.307Z,0.00
2018-07-03T00:04:52.316Z,0.00
2018-07-03T00:05:52.284Z,0.00
2018-07-03T00:06:52.272Z,0.00
2018-07-03T00:07:52.261Z,0.00
2018-07-03T00:08:52.253Z,0.00
2018-07-03T00:09:52.265Z,0.00
2018-07-03T00:10:52.227Z,0.00
2018-07-03T00:11:52.216Z,0.00
2018-07-03T00:12:52.208Z,0.00
2018-07-03T00:13:52.194Z,0.00
2018-07-03T00:14:52.206Z,0.00
2018-07-03T00:15:52.174Z,0.00
2018-07-03T00:16:52.160Z,0.00
2018-07-03T00:17:52.149Z,0.00
2018-07-03T00:18:52.138Z,0.00
2018-07-03T00:19:52.150Z,0.00
2018-07-03T00:20:52.115Z,0.00
2018-07-03T00:21:52.106Z,0.00
2018-07-03T00:22:52.093Z,0.00
2018-07-03T00:23:52.084Z,0.00
2018-07-03T00:24:52.098Z,0.00
2018-07-03T00:25:52.062Z,0.00
2018-07-03T00:26:52.048Z,0.00
2018-07-03T00:27:52.039Z,0.00
2018-07-03T00:28:52.027Z,0.00
2018-07-03T00:29:52.039Z,0.00
2018-07-03T00:30:52.013Z,0.00
2018-07-03T00:31:51.996Z,0.00
2018-07-03T00:32:51.982Z,0.00
2018-07-03T00:33:51.972Z,0.00
2018-07-03T00:34:51.983Z,0.00
2018-07-03T00:35:51.948Z,0.00
2018-07-03T00:36:51.941Z,0.00
2018-07-03T00:37:51.927Z,0.00
2018-07-03T00:38:51.915Z,0.00
2018-07-03T00:39:51.936Z,0.00
2018-07-03T00:40:51.893Z,0.00
2018-07-03T00:41:51.881Z,0.00
2018-07-03T00:42:51.871Z,0.00
2018-07-03T00:43:51.864Z,0.00
2018-07-03T00:44:51.875Z,0.00
2018-07-03T00:45:51.840Z,0.00
2018-07-03T00:46:51.827Z,0.00
2018-07-03T00:47:51.815Z,0.00
2018-07-03T00:48:51.804Z,0.00
2018-07-03T00:49:51.816Z,0.00
2018-07-03T00:50:51.782Z,0.00
2018-07-03T00:51:51.770Z,0.00
2018-07-03T00:52:51.760Z,0.00
2018-07-03T00:53:51.748Z,0.00
2018-07-03T00:54:51.762Z,0.00
2018-07-03T00:55:51.727Z,0.00
2018-07-03T00:56:51.714Z,0.00
2018-07-03T00:57:51.703Z,0.00
2018-07-03T00:58:51.693Z,0.00
2018-07-03T00:59:51.705Z,0.00
2018-07-03T01:00:51.671Z,0.00
2018-07-03T01:01:51.659Z,0.00
2018-07-03T01:02:51.648Z,0.00
2018-07-03T01:03:51.638Z,0.00
2018-07-03T01:04:51.650Z,0.00
2018-07-03T01:05:51.614Z,0.00
2018-07-03T01:06:51.603Z,0.00
2018-07-03T01:07:51.597Z,0.00
2018-07-03T01:08:51.582Z,0.00
2018-07-03T01:09:51.593Z,0.00
2018-07-03T01:10:51.564Z,0.00
2018-07-03T01:11:51.547Z,0.00
2018-07-03T01:12:51.537Z,0.00
2018-07-03T01:13:51.525Z,0.00
2018-07-03T01:14:51.536Z,0.00
2018-07-03T01:15:51.503Z,0.00
2018-07-03T01:16:51.492Z,0.00
2018-07-03T01:17:51.519Z,0.00
2018-07-03T01:18:51.471Z,0.00
2018-07-03T01:19:51.481Z,0.00
2018-07-03T01:20:51.447Z,0.00
2018-07-03T01:21:51.438Z,0.00
2018-07-03T01:22:51.425Z,0.00
2018-07-03T01:23:51.413Z,0.00
2018-07-03T01:24:51.426Z,0.00
2018-07-03T01:25:51.392Z,0.00
2018-07-03T01:26:51.380Z,0.00
2018-07-03T01:27:51.370Z,0.00
2018-07-03T01:28:51.358Z,0.00
2018-07-03T01:29:51.348Z,0.00
2018-07-03T01:30:51.362Z,0.00
2018-07-03T01:31:51.325Z,0.00
2018-07-03T01:32:51.313Z,0.00
2018-07-03T01:33:51.302Z,0.00
2018-07-03T01:34:51.313Z,0.00
2018-07-03T01:35:51.279Z,0.00
2018-07-03T01:36:51.268Z,0.00
2018-07-03T01:37:51.259Z,0.00
2018-07-03T01:38:51.248Z,0.00
2018-07-03T01:39:51.238Z,0.00
2018-07-03T01:40:51.248Z,0.00
2018-07-03T01:41:51.219Z,0.00
2018-07-03T01:42:51.202Z,0.00
2018-07-03T01:43:51.190Z,0.00
2018-07-03T01:44:51.181Z,0.00
2018-07-03T01:45:51.193Z,0.00
2018-07-03T01:46:51.158Z,0.00
2018-07-03T01:47:51.147Z,0.00
2018-07-03T01:48:51.137Z,0.00
2018-07-03T01:49:51.132Z,0.00
2018-07-03T01:50:51.174Z,0.00
2018-07-03T01:51:51.103Z,0.00
2018-07-03T01:52:51.103Z,0.00
2018-07-03T01:53:51.082Z,0.00
2018-07-03T01:54:51.070Z,0.00
2018-07-03T01:55:51.090Z,0.00
2018-07-03T01:56:51.046Z,0.00
2018-07-03T01:57:51.039Z,0.00
2018-07-03T01:58:51.025Z,0.00
2018-07-03T01:59:51.014Z,0.00
2018-07-03T02:00:51.026Z,0.00
2018-07-03T02:01:50.991Z,0.00
2018-07-03T02:02:50.980Z,0.00
2018-07-03T02:03:50.971Z,0.00
2018-07-03T02:04:50.958Z,0.00
2018-07-03T02:05:50.970Z,0.00
2018-07-03T02:06:50.936Z,0.00
2018-07-03T02:07:50.925Z,0.00
2018-07-03T02:08:50.913Z,0.00
2018-07-03T02:09:50.902Z,0.00
2018-07-03T02:10:50.914Z,0.00
2018-07-03T02:11:50.882Z,0.00
2018-07-03T02:12:50.869Z,0.00
2018-07-03T02:13:50.859Z,0.00
2018-07-03T02:14:50.846Z,0.00
2018-07-03T02:15:50.861Z,0.00
2018-07-03T02:16:50.826Z,0.00
2018-07-03T02:17:50.814Z,0.00
2018-07-03T02:18:50.804Z,0.00
2018-07-03T02:19:50.793Z,0.00
2018-07-03T02:20:50.806Z,0.00
2018-07-03T02:21:50.772Z,0.00
2018-07-03T02:22:50.760Z,0.00
2018-07-03T02:23:50.749Z,0.00
2018-07-03T02:24:50.740Z,0.00
2018-07-03T02:25:50.751Z,0.00
2018-07-03T02:26:50.718Z,0.00
2018-07-03T02:27:50.705Z,0.00
2018-07-03T02:28:50.695Z,0.00
2018-07-03T02:29:50.683Z,0.00
2018-07-03T02:30:50.697Z,0.00
2018-07-03T02:31:50.663Z,0.00
2018-07-03T02:32:50.673Z,0.00
2018-07-03T02:33:50.641Z,0.00
2018-07-03T02:34:50.628Z,0.00
2018-07-03T02:35:50.619Z,0.00
2018-07-03T02:36:50.605Z,0.00
2018-07-03T02:37:50.620Z,0.00
2018-07-03T02:38:50.585Z,0.00
2018-07-03T02:39:50.573Z,0.00
2018-07-03T02:40:50.561Z,0.00
2018-07-03T02:41:50.551Z,0.00
2018-07-03T02:42:50.580Z,0.00
2018-07-03T02:43:50.534Z,0.00
2018-07-03T02:44:50.518Z,0.00
2018-07-03T02:45:50.508Z,0.00
2018-07-03T02:46:50.495Z,0.00
2018-07-03T02:47:50.508Z,0.00
2018-07-03T02:48:50.473Z,0.00
2018-07-03T02:49:50.463Z,0.00
2018-07-03T02:50:50.452Z,0.00
2018-07-03T02:51:50.446Z,0.00
2018-07-03T02:52:50.453Z,0.00
2018-07-03T02:53:50.419Z,0.00
2018-07-03T02:54:50.411Z,0.00
2018-07-03T02:55:50.396Z,0.00
2018-07-03T02:56:50.387Z,0.00
2018-07-03T02:57:50.398Z,0.00
2018-07-03T02:58:50.364Z,4.00
2018-07-03T02:59:50.361Z,4.00
2018-07-03T03:00:50.343Z,4.00
2018-07-03T03:01:50.333Z,0.00
2018-07-03T03:02:50.342Z,0.00
2018-07-03T03:03:50.308Z,4.00
2018-07-03T03:04:50.300Z,4.00
2018-07-03T03:05:50.289Z,4.00
2018-07-03T03:06:50.278Z,4.00
2018-07-03T03:07:50.267Z,4.00
2018-07-03T03:08:50.277Z,4.00
2018-07-03T03:09:50.245Z,4.00
2018-07-03T03:10:50.232Z,4.00
2018-07-03T03:11:50.221Z,8.00
2018-07-03T03:12:50.212Z,4.00
2018-07-03T03:13:50.222Z,8.00
2018-07-03T03:14:50.191Z,12.00
2018-07-03T03:15:50.179Z,8.00
2018-07-03T03:16:50.167Z,12.00
2018-07-03T03:17:50.158Z,12.00
2018-07-03T03:18:50.169Z,16.00
2018-07-03T03:19:50.133Z,12.00
2018-07-03T03:20:50.122Z,16.00
2018-07-03T03:21:50.112Z,16.00
2018-07-03T03:22:50.106Z,20.00
2018-07-03T03:23:50.114Z,20.00
2018-07-03T03:24:50.078Z,20.00
2018-07-03T03:25:50.067Z,24.00
2018-07-03T03:26:50.058Z,24.00
2018-07-03T03:27:50.049Z,24.00
2018-07-03T03:28:50.062Z,28.00
2018-07-03T03:29:50.023Z,32.00
2018-07-03T03:30:50.016Z,32.00
2018-07-03T03:31:50.005Z,32.00
2018-07-03T03:32:49.991Z,36.00
2018-07-03T03:33:50.003Z,36.00
2018-07-03T03:34:49.969Z,44.00
2018-07-03T03:35:49.957Z,44.00
2018-07-03T03:36:49.949Z,44.00
2018-07-03T03:37:49.935Z,48.00
2018-07-03T03:38:49.947Z,52.00
2018-07-03T03:39:49.912Z,52.00
2018-07-03T03:40:49.901Z,56.00
2018-07-03T03:41:49.895Z,60.00
2018-07-03T03:42:49.880Z,60.00
2018-07-03T03:43:49.894Z,64.00
2018-07-03T03:44:49.858Z,64.00
2018-07-03T03:45:49.848Z,68.00
2018-07-03T03:46:49.835Z,72.00
2018-07-03T03:47:49.824Z,72.00
2018-07-03T03:48:49.836Z,76.00
2018-07-03T03:49:49.804Z,80.00
2018-07-03T03:50:49.791Z,80.00
2018-07-03T03:51:49.780Z,84.00
2018-07-03T03:52:49.770Z,88.00
2018-07-03T03:53:49.885Z,88.00
2018-07-03T03:54:49.749Z,92.00
2018-07-03T03:55:49.737Z,96.00
2018-07-03T03:56:49.726Z,100.00
2018-07-03T03:57:49.715Z,100.00
2018-07-03T03:58:49.726Z,104.00
2018-07-03T03:59:49.693Z,116.00
2018-07-03T04:00:49.723Z,120.00
2018-07-03T04:01:49.687Z,156.00
2018-07-03T04:02:49.660Z,192.00
2018-07-03T04:03:49.674Z,168.00
2018-07-03T04:04:49.639Z,176.00
2018-07-03T04:05:49.628Z,292.00
2018-07-03T04:06:49.618Z,312.00
2018-07-03T04:07:49.605Z,212.00
2018-07-03T04:08:49.617Z,172.00
2018-07-03T04:09:49.583Z,164.00
2018-07-03T04:10:49.575Z,160.00
2018-07-03T04:11:49.563Z,152.00
2018-07-03T04:12:49.551Z,152.00
2018-07-03T04:13:49.562Z,152.00
2018-07-03T04:14:49.528Z,156.00
2018-07-03T04:15:49.516Z,152.00
2018-07-03T04:16:49.507Z,156.00
2018-07-03T04:17:49.495Z,160.00
2018-07-03T04:18:49.507Z,164.00
2018-07-03T04:19:49.473Z,164.00
2018-07-03T04:20:49.462Z,164.00
2018-07-03T04:21:49.453Z,172.00
2018-07-03T04:22:49.440Z,172.00
2018-07-03T04:23:49.452Z,172.00
2018-07-03T04:24:49.417Z,176.00
2018-07-03T04:25:49.410Z,180.00
2018-07-03T04:26:49.396Z,184.00
2018-07-03T04:27:49.384Z,184.00
2018-07-03T04:28:49.397Z,184.00
2018-07-03T04:29:49.365Z,188.00
2018-07-03T04:30:49.353Z,192.00
2018-07-03T04:31:49.341Z,192.00
2018-07-03T04:32:49.330Z,196.00
2018-07-03T04:33:49.342Z,200.00
2018-07-03T04:34:49.309Z,204.00
2018-07-03T04:35:49.296Z,208.00
2018-07-03T04:36:49.286Z,212.00
2018-07-03T04:37:49.276Z,212.00
2018-07-03T04:38:49.287Z,216.00
2018-07-03T04:39:49.254Z,220.00
2018-07-03T04:40:49.241Z,224.00
2018-07-03T04:41:49.232Z,224.00
2018-07-03T04:42:49.220Z,228.00
2018-07-03T04:43:49.230Z,232.00
2018-07-03T04:44:49.196Z,232.00
2018-07-03T04:45:49.186Z,236.00
2018-07-03T04:46:49.178Z,240.00
2018-07-03T04:47:49.162Z,240.00
2018-07-03T04:48:49.176Z,244.00
2018-07-03T04:49:49.146Z,244.00
2018-07-03T04:50:49.130Z,248.00
2018-07-03T04:51:49.123Z,252.00
2018-07-03T04:52:49.108Z,256.00
2018-07-03T04:53:49.128Z,260.00
2018-07-03T04:54:49.087Z,260.00
2018-07-03T04:55:49.075Z,264.00
2018-07-03T04:56:49.066Z,268.00
2018-07-03T04:57:49.054Z,268.00
2018-07-03T04:58:49.075Z,268.00
2018-07-03T04:59:49.030Z,272.00
2018-07-03T05:00:49.020Z,272.00
2018-07-03T05:01:49.010Z,276.00
2018-07-03T05:02:49.006Z,280.00
2018-07-03T05:03:48.989Z,280.00
2018-07-03T05:04:48.999Z,284.00
2018-07-03T05:05:48.965Z,288.00
2018-07-03T05:06:48.956Z,292.00
2018-07-03T05:07:48.944Z,292.00
2018-07-03T05:08:48.934Z,296.00
2018-07-03T05:09:48.944Z,296.00
2018-07-03T05:10:48.910Z,300.00
2018-07-03T05:11:48.899Z,300.00
2018-07-03T05:12:48.889Z,304.00
2018-07-03T05:13:48.882Z,308.00
2018-07-03T05:14:48.889Z,308.00
2018-07-03T05:15:48.857Z,308.00
2018-07-03T05:16:48.844Z,308.00
2018-07-03T05:17:48.832Z,312.00
2018-07-03T05:18:48.822Z,316.00
2018-07-03T05:19:48.832Z,316.00
2018-07-03T05:20:48.798Z,316.00
2018-07-03T05:21:48.788Z,320.00
2018-07-03T05:22:48.777Z,320.00
2018-07-03T05:23:48.765Z,320.00
2018-07-03T05:24:48.781Z,324.00
2018-07-03T05:25:48.744Z,328.00
2018-07-03T05:26:48.733Z,332.00
2018-07-03T05:27:48.722Z,332.00
2018-07-03T05:28:48.710Z,332.00
2018-07-03T05:29:48.723Z,340.00
2018-07-03T05:30:48.690Z,340.00
2018-07-03T05:31:48.679Z,344.00
2018-07-03T05:32:48.667Z,344.00
2018-07-03T05:33:48.657Z,344.00
2018-07-03T05:34:48.667Z,344.00
2018-07-03T05:35:48.635Z,348.00
2018-07-03T05:36:48.624Z,352.00
2018-07-03T05:37:48.762Z,356.00
2018-07-03T05:38:48.601Z,356.00
2018-07-03T05:39:48.617Z,356.00
2018-07-03T05:40:48.579Z,356.00
2018-07-03T05:41:48.567Z,360.00
2018-07-03T05:42:48.561Z,360.00
2018-07-03T05:43:48.546Z,360.00
2018-07-03T05:44:48.559Z,360.00
2018-07-03T05:45:48.525Z,364.00
2018-07-03T05:46:48.514Z,364.00
2018-07-03T05:47:48.502Z,364.00
2018-07-03T05:48:48.492Z,364.00
2018-07-03T05:49:48.503Z,368.00
2018-07-03T05:50:48.471Z,368.00
2018-07-03T05:51:48.462Z,368.00
2018-07-03T05:52:48.446Z,368.00
2018-07-03T05:53:48.440Z,372.00
2018-07-03T05:54:48.449Z,372.00
2018-07-03T05:55:48.414Z,376.00
2018-07-03T05:56:48.403Z,376.00
2018-07-03T05:57:48.392Z,372.00
2018-07-03T05:58:48.380Z,372.00
2018-07-03T05:59:48.394Z,372.00
2018-07-03T06:00:48.361Z,372.00
2018-07-03T06:01:48.348Z,376.00
2018-07-03T06:02:48.337Z,376.00
2018-07-03T06:03:48.364Z,380.00
2018-07-03T06:04:48.339Z,384.00
2018-07-03T06:05:48.306Z,388.00
2018-07-03T06:06:48.293Z,388.00
2018-07-03T06:07:48.281Z,388.00
2018-07-03T06:08:48.271Z,392.00
2018-07-03T06:09:48.284Z,392.00
2018-07-03T06:10:48.248Z,400.00
2018-07-03T06:11:48.238Z,400.00
2018-07-03T06:12:48.226Z,1816.00
2018-07-03T06:13:48.221Z,1832.00
2018-07-03T06:14:48.261Z,1848.00
2018-07-03T06:15:48.193Z,1860.00
2018-07-03T06:16:48.182Z,1872.00
2018-07-03T06:17:48.171Z,1888.00
2018-07-03T06:18:48.160Z,1892.00
2018-07-03T06:19:48.171Z,1908.00
2018-07-03T06:20:48.139Z,1868.00
2018-07-03T06:21:48.126Z,1864.00
2018-07-03T06:22:48.178Z,1892.00
2018-07-03T06:23:48.105Z,1928.00
2018-07-03T06:24:48.116Z,1896.00
2018-07-03T06:25:48.082Z,1924.00
2018-07-03T06:26:48.071Z,1908.00
2018-07-03T06:27:48.062Z,1924.00
2018-07-03T06:28:48.074Z,1952.00
2018-07-03T06:29:48.059Z,2012.00
2018-07-03T06:30:48.025Z,2012.00
2018-07-03T06:31:48.015Z,2012.00
2018-07-03T06:32:48.003Z,2008.00
2018-07-03T06:33:47.991Z,1980.00
2018-07-03T06:34:48.008Z,2048.00
2018-07-03T06:35:47.971Z,2092.00
2018-07-03T06:36:47.970Z,2048.00
2018-07-03T06:37:47.947Z,2060.00
2018-07-03T06:38:47.942Z,2068.00
2018-07-03T06:39:47.948Z,2108.00
2018-07-03T06:40:48.015Z,2104.00
2018-07-03T06:41:48.001Z,2116.00
2018-07-03T06:42:47.893Z,2112.00
2018-07-03T06:43:47.880Z,2104.00
2018-07-03T06:44:47.950Z,2140.00
2018-07-03T06:45:47.859Z,2164.00
2018-07-03T06:46:47.848Z,2176.00
2018-07-03T06:47:47.837Z,2184.00
2018-07-03T06:48:47.828Z,2172.00
2018-07-03T06:49:47.817Z,2172.00
2018-07-03T06:50:47.826Z,2188.00
2018-07-03T06:51:47.854Z,2200.00
2018-07-03T06:52:47.830Z,2200.00
2018-07-03T06:53:47.772Z,2200.00
2018-07-03T06:54:47.763Z,2200.00
2018-07-03T06:55:47.771Z,2208.00
2018-07-03T06:56:47.743Z,2212.00
2018-07-03T06:57:47.784Z,2212.00
2018-07-03T06:58:47.716Z,2220.00
2018-07-03T06:59:47.730Z,2220.00
2018-07-03T07:00:47.719Z,2220.00
2018-07-03T07:01:47.683Z,2224.00
2018-07-03T07:02:47.673Z,2228.00
2018-07-03T07:03:47.661Z,2220.00
2018-07-03T07:04:47.652Z,2216.00
2018-07-03T07:05:47.661Z,2212.00
2018-07-03T07:06:47.628Z,2204.00
2018-07-03T07:07:47.617Z,2196.00
2018-07-03T07:08:47.787Z,2192.00
2018-07-03T07:09:47.602Z,2184.00
2018-07-03T07:10:47.609Z,2180.00
2018-07-03T07:11:47.591Z,2176.00
2018-07-03T07:12:47.562Z,2168.00
2018-07-03T07:13:47.550Z,2164.00
2018-07-03T07:14:47.540Z,2160.00
2018-07-03T07:15:47.551Z,2152.00
2018-07-03T07:16:47.518Z,2152.00
2018-07-03T07:17:47.507Z,2148.00
2018-07-03T07:18:47.496Z,2148.00
2018-07-03T07:19:47.486Z,2144.00
2018-07-03T07:20:47.498Z,2064.00
2018-07-03T07:21:47.463Z,2216.00
2018-07-03T07:22:47.452Z,2220.00
2018-07-03T07:23:47.441Z,2216.00
2018-07-03T07:24:47.433Z,2212.00
2018-07-03T07:25:47.442Z,2200.00
2018-07-03T07:26:47.409Z,2164.00
2018-07-03T07:27:47.398Z,2196.00
2018-07-03T07:28:47.386Z,2188.00
2018-07-03T07:29:47.377Z,2184.00
2018-07-03T07:30:47.390Z,2184.00
2018-07-03T07:31:47.354Z,2192.00
2018-07-03T07:32:47.342Z,2200.00
2018-07-03T07:33:47.332Z,2208.00
2018-07-03T07:34:47.320Z,2208.00
2018-07-03T07:35:47.340Z,2208.00
2018-07-03T07:36:47.298Z,2204.00
2018-07-03T07:37:47.290Z,2204.00
2018-07-03T07:38:47.276Z,2212.00
2018-07-03T07:39:47.266Z,2220.00
2018-07-03T07:40:47.279Z,2216.00
2018-07-03T07:41:47.244Z,2248.00
2018-07-03T07:42:47.319Z,2268.00
2018-07-03T07:43:47.221Z,2276.00
2018-07-03T07:44:47.211Z,2172.00
2018-07-03T07:45:47.222Z,1432.00
2018-07-03T07:46:47.190Z,1680.00
2018-07-03T07:47:47.179Z,2016.00
2018-07-03T07:48:47.167Z,2012.00
2018-07-03T07:49:47.157Z,2016.00
2018-07-03T07:50:47.169Z,2020.00
2018-07-03T07:51:47.134Z,2020.00
2018-07-03T07:52:47.123Z,2024.00
2018-07-03T07:53:47.116Z,2024.00
2018-07-03T07:54:47.108Z,2024.00
2018-07-03T07:55:47.113Z,2056.00
2018-07-03T07:56:47.080Z,1640.00
2018-07-03T07:57:47.104Z,2056.00
2018-07-03T07:58:47.058Z,2056.00
2018-07-03T07:59:47.047Z,2028.00
2018-07-03T08:00:47.060Z,2028.00
2018-07-03T08:01:47.024Z,2060.00
2018-07-03T08:02:47.013Z,2072.00
2018-07-03T08:03:47.004Z,2044.00
2018-07-03T08:04:46.994Z,2064.00
2018-07-03T08:05:47.006Z,2036.00
2018-07-03T08:06:47.049Z,1976.00
2018-07-03T08:07:46.961Z,2044.00
2018-07-03T08:08:46.948Z,1996.00
2018-07-03T08:09:46.935Z,2056.00
2018-07-03T08:10:46.950Z,2036.00
2018-07-03T08:11:46.915Z,2032.00
2018-07-03T08:12:46.904Z,2040.00
2018-07-03T08:13:46.895Z,2028.00
2018-07-03T08:14:46.888Z,2012.00
2018-07-03T08:15:46.894Z,2040.00
2018-07-03T08:16:46.861Z,2052.00
2018-07-03T08:17:46.851Z,2044.00
2018-07-03T08:18:46.843Z,2040.00
2018-07-03T08:19:46.830Z,2008.00
2018-07-03T08:20:46.839Z,1992.00
2018-07-03T08:21:46.804Z,2016.00
2018-07-03T08:22:46.793Z,1900.00
2018-07-03T08:23:46.781Z,1948.00
2018-07-03T08:24:46.775Z,1920.00
2018-07-03T08:25:46.782Z,1984.00
2018-07-03T08:26:46.750Z,1912.00
2018-07-03T08:27:46.739Z,1852.00
2018-07-03T08:28:46.727Z,2012.00
2018-07-03T08:29:46.719Z,2008.00
2018-07-03T08:30:46.706Z,2008.00
2018-07-03T08:31:46.722Z,1972.00
2018-07-03T08:32:46.682Z,1968.00
2018-07-03T08:33:46.671Z,1964.00
2018-07-03T08:34:46.662Z,1952.00
2018-07-03T08:35:46.651Z,1960.00
2018-07-03T08:36:46.670Z,1956.00
2018-07-03T08:37:46.688Z,1952.00
2018-07-03T08:38:46.617Z,1952.00
2018-07-03T08:39:46.604Z,1948.00
2018-07-03T08:40:46.596Z,1948.00
2018-07-03T08:41:46.610Z,1944.00
2018-07-03T08:42:46.577Z,1948.00
2018-07-03T08:43:46.561Z,1944.00
2018-07-03T08:44:46.550Z,1944.00
2018-07-03T08:45:46.538Z,1944.00
2018-07-03T08:46:46.551Z,1940.00
2018-07-03T08:47:46.517Z,1940.00
2018-07-03T08:48:46.507Z,1940.00
2018-07-03T08:49:46.495Z,1940.00
2018-07-03T08:50:46.486Z,1940.00
2018-07-03T08:51:46.586Z,1936.00
2018-07-03T08:52:46.464Z,1940.00
2018-07-03T08:53:46.451Z,1944.00
2018-07-03T08:54:46.447Z,1940.00
2018-07-03T08:55:46.430Z,1936.00
2018-07-03T08:56:46.442Z,1936.00
2018-07-03T08:57:46.409Z,1936.00
2018-07-03T08:58:46.399Z,1932.00
2018-07-03T08:59:46.386Z,1936.00
2018-07-03T09:00:46.386Z,1888.00
2018-07-03T09:01:46.386Z,1932.00
2018-07-03T09:02:46.352Z,1932.00
2018-07-03T09:03:46.347Z,1940.00
2018-07-03T09:04:46.332Z,1932.00
2018-07-03T09:05:46.320Z,1932.00
2018-07-03T09:06:46.343Z,1932.00
2018-07-03T09:07:46.298Z,1928.00
2018-07-03T09:08:46.289Z,1936.00
2018-07-03T09:09:46.276Z,1940.00
2018-07-03T09:10:46.266Z,1932.00
2018-07-03T09:11:46.276Z,1932.00
2018-07-03T09:12:46.243Z,1928.00
2018-07-03T09:13:46.232Z,1932.00
2018-07-03T09:14:46.222Z,1932.00
2018-07-03T09:15:46.210Z,1924.00
2018-07-03T09:16:46.223Z,1932.00
2018-07-03T09:17:46.188Z,1928.00
2018-07-03T09:18:46.176Z,1928.00
2018-07-03T09:19:46.166Z,1928.00
2018-07-03T09:20:46.156Z,1924.00
2018-07-03T09:21:46.171Z,1916.00
2018-07-03T09:22:46.135Z,1920.00
2018-07-03T09:23:46.122Z,1916.00
2018-07-03T09:24:46.110Z,1920.00
2018-07-03T09:25:46.101Z,1916.00
2018-07-03T09:26:46.111Z,1920.00
2018-07-03T09:27:46.078Z,1916.00
2018-07-03T09:28:46.067Z,1904.00
2018-07-03T09:29:46.056Z,1916.00
2018-07-03T09:30:46.100Z,1920.00
2018-07-03T09:31:46.057Z,1916.00
2018-07-03T09:32:46.023Z,1916.00
2018-07-03T09:33:46.060Z,1916.00
2018-07-03T09:34:46.001Z,1920.00
2018-07-03T09:35:45.989Z,1916.00
2018-07-03T09:36:46.003Z,1916.00
2018-07-03T09:37:45.969Z,1916.00
2018-07-03T09:38:45.957Z,1916.00
2018-07-03T09:39:45.949Z,1916.00
2018-07-03T09:40:45.935Z,1916.00
2018-07-03T09:41:45.948Z,1920.00
2018-07-03T09:42:45.913Z,1920.00
2018-07-03T09:43:45.908Z,1920.00
2018-07-03T09:44:45.891Z,1920.00
2018-07-03T09:45:45.881Z,1916.00
2018-07-03T09:46:45.895Z,1920.00
2018-07-03T09:47:45.858Z,1920.00
2018-07-03T09:48:45.876Z,1924.00
2018-07-03T09:49:45.836Z,1924.00
2018-07-03T09:50:45.827Z,1920.00
2018-07-03T09:51:45.844Z,1928.00
2018-07-03T09:52:45.803Z,1924.00
2018-07-03T09:53:45.792Z,1932.00
2018-07-03T09:54:45.873Z,1928.00
2018-07-03T09:55:45.772Z,1932.00
2018-07-03T09:56:45.782Z,1936.00
2018-07-03T09:57:45.757Z,1936.00
2018-07-03T09:58:45.736Z,1936.00
2018-07-03T09:59:45.727Z,1936.00
2018-07-03T10:00:45.716Z,1944.00
2018-07-03T10:01:45.728Z,1940.00
2018-07-03T10:02:45.694Z,1940.00
2018-07-03T10:03:45.683Z,1944.00
2018-07-03T10:04:45.672Z,1952.00
2018-07-03T10:05:45.660Z,1956.00
2018-07-03T10:06:45.674Z,1956.00
2018-07-03T10:07:45.641Z,1956.00
2018-07-03T10:08:45.629Z,1956.00
2018-07-03T10:09:45.619Z,1948.00
2018-07-03T10:10:45.606Z,1952.00
2018-07-03T10:11:45.603Z,1952.00
2018-07-03T10:12:45.606Z,1952.00
2018-07-03T10:13:45.573Z,1952.00
2018-07-03T10:14:45.562Z,1948.00
2018-07-03T10:15:45.551Z,1952.00
2018-07-03T10:16:45.541Z,1960.00
2018-07-03T10:17:45.573Z,1952.00
2018-07-03T10:18:45.555Z,1952.00
2018-07-03T10:19:45.509Z,1948.00
2018-07-03T10:20:45.497Z,1952.00
2018-07-03T10:21:45.487Z,1956.00
2018-07-03T10:22:45.499Z,1956.00
2018-07-03T10:23:45.463Z,1956.00
2018-07-03T10:24:45.454Z,1960.00
2018-07-03T10:25:45.443Z,1956.00
2018-07-03T10:26:45.470Z,1960.00
2018-07-03T10:27:45.427Z,1960.00
2018-07-03T10:28:45.408Z,1964.00
2018-07-03T10:29:45.408Z,1964.00
2018-07-03T10:30:45.387Z,1968.00
2018-07-03T10:31:45.377Z,1968.00
2018-07-03T10:32:45.387Z,1672.00
2018-07-03T10:33:45.354Z,1968.00
2018-07-03T10:34:45.343Z,1968.00
2018-07-03T10:35:45.332Z,1972.00
2018-07-03T10:36:45.320Z,1972.00
2018-07-03T10:37:45.338Z,1980.00
2018-07-03T10:38:45.299Z,1980.00
2018-07-03T10:39:45.288Z,1988.00
2018-07-03T10:40:45.277Z,1980.00
2018-07-03T10:41:45.267Z,1996.00
2018-07-03T10:42:45.278Z,2000.00
2018-07-03T10:43:45.245Z,2000.00
2018-07-03T10:44:45.233Z,2004.00
2018-07-03T10:45:45.222Z,2004.00
2018-07-03T10:46:45.211Z,2008.00
2018-07-03T10:47:45.228Z,2012.00
2018-07-03T10:48:45.210Z,2012.00
2018-07-03T10:49:45.177Z,2020.00
2018-07-03T10:50:45.166Z,2024.00
2018-07-03T10:51:45.156Z,2036.00
2018-07-03T10:52:45.167Z,2028.00
2018-07-03T10:53:45.134Z,2068.00
2018-07-03T10:54:45.123Z,2076.00
2018-07-03T10:55:45.114Z,2072.00
2018-07-03T10:56:45.106Z,2084.00
2018-07-03T10:57:45.124Z,2088.00
2018-07-03T10:58:45.078Z,2080.00
2018-07-03T10:59:45.068Z,2096.00
2018-07-03T11:00:45.064Z,2100.00
2018-07-03T11:01:45.050Z,2104.00
2018-07-03T11:02:45.058Z,2108.00
2018-07-03T11:03:45.023Z,2108.00
2018-07-03T11:04:45.025Z,2112.00
2018-07-03T11:05:45.077Z,2120.00
2018-07-03T11:06:44.990Z,2128.00
2018-07-03T11:07:47.384Z,2140.00
2018-07-03T11:08:45.024Z,2148.00
2018-07-03T11:09:45.135Z,2164.00
2018-07-03T11:10:44.947Z,2172.00
2018-07-03T11:11:44.937Z,2184.00
2018-07-03T11:12:44.948Z,2200.00
2018-07-03T11:13:44.969Z,2204.00
2018-07-03T11:14:44.902Z,2216.00
2018-07-03T11:15:44.895Z,2236.00
2018-07-03T11:16:44.891Z,2256.00
2018-07-03T11:17:44.993Z,2272.00
2018-07-03T11:18:44.860Z,2284.00
2018-07-03T11:19:45.410Z,2300.00
2018-07-03T11:20:44.836Z,2312.00
2018-07-03T11:21:44.825Z,2332.00
2018-07-03T11:22:44.840Z,2344.00
2018-07-03T11:23:44.803Z,2368.00
2018-07-03T11:24:44.794Z,2380.00
2018-07-03T11:25:44.782Z,2400.00
2018-07-03T11:26:44.772Z,2420.00
2018-07-03T11:27:44.781Z,2440.00
2018-07-03T11:28:44.749Z,2460.00
2018-07-03T11:29:44.737Z,2480.00
2018-07-03T11:30:44.726Z,2496.00
2018-07-03T11:31:44.715Z,2520.00
2018-07-03T11:32:44.727Z,2544.00
2018-07-03T11:33:44.751Z,2560.00
2018-07-03T11:34:44.682Z,2584.00
2018-07-03T11:35:44.672Z,2608.00
2018-07-03T11:36:44.661Z,2672.00
2018-07-03T11:37:44.729Z,2296.00
2018-07-03T11:38:44.638Z,2720.00
2018-07-03T11:39:44.627Z,2752.00
2018-07-03T11:40:44.618Z,2776.00
2018-07-03T11:41:44.606Z,2784.00
2018-07-03T11:42:44.619Z,2824.00
2018-07-03T11:43:44.583Z,2856.00
2018-07-03T11:44:44.623Z,2876.00
2018-07-03T11:45:44.562Z,2908.00
2018-07-03T11:46:44.551Z,2936.00
2018-07-03T11:47:44.541Z,3064.00
2018-07-03T11:48:44.551Z,3072.00
2018-07-03T11:49:44.517Z,3232.00
2018-07-03T11:50:44.507Z,3196.00
2018-07-03T11:51:44.495Z,3388.00
2018-07-03T11:52:44.487Z,3460.00
2018-07-03T11:53:44.497Z,3516.00
2018-07-03T11:54:44.462Z,3572.00
2018-07-03T11:55:44.452Z,3620.00
2018-07-03T11:56:44.445Z,3640.00
2018-07-03T11:57:44.460Z,3672.00
2018-07-03T11:58:44.418Z,3696.00
2018-07-03T11:59:44.406Z,3672.00
2018-07-03T12:00:44.398Z,4192.00
2018-07-03T12:01:44.451Z,5444.00
2018-07-03T12:02:44.375Z,5532.00
2018-07-03T12:03:44.385Z,5576.00
2018-07-03T12:04:44.352Z,5620.00
2018-07-03T12:05:44.340Z,5672.00
2018-07-03T12:06:44.332Z,5700.00
2018-07-03T12:07:44.321Z,5744.00
2018-07-03T12:08:44.330Z,5780.00
2018-07-03T12:09:44.298Z,5904.00
2018-07-03T12:10:44.285Z,6192.00
2018-07-03T12:11:44.275Z,6476.00
2018-07-03T12:12:44.263Z,6712.00
2018-07-03T12:13:44.277Z,7000.00
2018-07-03T12:14:44.242Z,7608.00
2018-07-03T12:15:44.232Z,8084.00
2018-07-03T12:16:44.222Z,8172.00
2018-07-03T12:17:44.212Z,8176.00
2018-07-03T12:18:44.224Z,8180.00
2018-07-03T12:19:44.295Z,8148.00
2018-07-03T12:20:44.180Z,8096.00
2018-07-03T12:21:44.169Z,8032.00
2018-07-03T12:22:44.159Z,7824.00
2018-07-03T12:23:44.167Z,7460.00
2018-07-03T12:24:44.135Z,7240.00
2018-07-03T12:25:44.123Z,7128.00
2018-07-03T12:26:44.115Z,6940.00
2018-07-03T12:27:44.101Z,7012.00
2018-07-03T12:28:44.115Z,7032.00
2018-07-03T12:29:44.080Z,7076.00
2018-07-03T12:30:44.071Z,7128.00